Time;durP1;ratioP1;P1;durP2;ratioP2;P2;SDS_P1;SDS_P2;PMS_P1;PMS_P2;Temp;Humidity;BMP_temperature;BMP_pressure;BME280_temperature;BME280_humidity;BME280_pressure;Samples;Min_cycle;Max_cycle;Signal;HPM_P1;HPM_P2
2021/10/27 00:01:47;;;;;;;10.70;7.47;;;15.30;47.50;;;;;;5093246;28;20474;-85
2021/10/27 00:04:14;;;;;;;10.67;7.67;;;15.50;49.50;;;;;;5093192;28;20484;-86
2021/10/27 00:06:41;;;;;;;12.40;7.70;;;15.70;49.10;;;;;;5092916;28;20534;-86
2021/10/27 00:09:09;;;;;;;11.50;6.93;;;15.70;48.30;;;;;;5092873;28;20490;-86
2021/10/27 00:11:36;;;;;;;9.80;6.77;;;15.80;49.50;;;;;;5093644;28;21043;-85
2021/10/27 00:14:04;;;;;;;10.90;6.67;;;15.60;47.80;;;;;;5093263;28;20496;-85
2021/10/27 00:16:32;;;;;;;12.90;6.90;;;15.90;49.60;;;;;;5093509;28;20476;-86
2021/10/27 00:18:59;;;;;;;9.13;6.00;;;15.90;47.90;;;;;;5093110;28;20545;-85
2021/10/27 00:21:26;;;;;;;16.07;7.27;;;15.90;49.50;;;;;;5093693;28;20780;-85
2021/10/27 00:23:53;;;;;;;15.70;8.80;;;16.20;48.20;;;;;;5094013;28;20874;-85
2021/10/27 00:26:20;;;;;;;13.70;7.43;;;16.00;47.50;;;;;;5093497;28;20475;-86
2021/10/27 00:28:47;;;;;;;11.03;7.60;;;15.90;47.90;;;;;;5093644;28;21039;-85
2021/10/27 00:31:16;;;;;;;10.10;7.40;;;15.70;47.30;;;;;;5093067;28;20474;-85
2021/10/27 00:33:43;;;;;;;10.93;7.50;;;15.60;46.70;;;;;;5093487;28;20434;-85
2021/10/27 00:36:11;;;;;;;10.40;6.70;;;15.50;47.80;;;;;;5093416;28;20482;-85
2021/10/27 00:38:38;;;;;;;15.87;6.93;;;15.60;48.70;;;;;;5093331;28;20903;-85
2021/10/27 00:41:08;;;;;;;10.73;6.10;;;15.70;48.80;;;;;;5092598;28;20952;-85
2021/10/27 00:43:35;;;;;;;13.67;7.47;;;15.70;48.10;;;;;;5093483;28;20435;-85
2021/10/27 00:46:02;;;;;;;9.53;6.53;;;15.50;46.00;;;;;;5093100;28;20474;-86
2021/10/27 00:48:31;;;;;;;16.53;8.57;;;15.60;49.10;;;;;;5093061;28;20479;-85
2021/10/27 00:50:58;;;;;;;15.30;7.70;;;15.30;45.50;;;;;;5093124;28;20546;-85
2021/10/27 00:53:25;;;;;;;11.27;7.03;;;14.80;45.10;;;;;;5094893;28;20439;-85
2021/10/27 00:55:53;;;;;;;19.50;7.23;;;14.00;48.50;;;;;;5097064;28;20458;-86
2021/10/27 00:58:21;;;;;;;19.47;7.23;;;14.40;50.20;;;;;;5096832;28;20435;-85
2021/10/27 01:00:48;;;;;;;20.00;8.67;;;14.60;49.70;;;;;;5096581;28;20489;-87
2021/10/27 01:03:16;;;;;;;17.70;9.20;;;14.80;49.60;;;;;;5097284;28;20956;-86
2021/10/27 01:05:44;;;;;;;11.63;7.23;;;14.80;47.60;;;;;;5110909;28;20480;-84
2021/10/27 01:08:12;;;;;;;8.93;6.53;;;14.40;49.50;;;;;;5104217;28;20513;-86
2021/10/27 01:10:41;;;;;;;13.70;6.50;;;14.40;47.30;;;;;;5097887;28;20923;-85
2021/10/27 01:13:08;;;;;;;11.53;7.23;;;14.30;47.00;;;;;;5098819;28;20446;-85
2021/10/27 01:15:39;;;;;;;10.70;6.33;;;14.10;48.00;;;;;;5105924;28;20526;-82
2021/10/27 01:18:06;;;;;;;10.20;6.70;;;14.40;50.40;;;;;;5120262;28;20434;-82
2021/10/27 01:20:34;;;;;;;13.73;7.40;;;14.60;50.50;;;;;;5120546;28;20474;-82
2021/10/27 01:23:01;;;;;;;13.17;7.80;;;14.80;47.40;;;;;;5120487;28;20446;-83
2021/10/27 01:25:29;;;;;;;9.13;6.70;;;14.50;48.40;;;;;;5120102;28;20422;-85
2021/10/27 01:27:56;;;;;;;19.30;9.03;;;14.80;49.70;;;;;;5118193;28;20438;-85
2021/10/27 01:30:25;;;;;;;14.43;8.20;;;15.00;49.40;;;;;;5118626;28;20502;-85
2021/10/27 01:32:52;;;;;;;11.13;7.13;;;14.90;49.70;;;;;;5117004;28;20484;-84
2021/10/27 01:35:19;;;;;;;8.90;5.90;;;14.60;44.80;;;;;;5103721;28;20438;-85
2021/10/27 01:37:48;;;;;;;10.33;6.67;;;14.80;49.30;;;;;;5099510;28;20587;-85
2021/10/27 01:40:17;;;;;;;19.30;7.07;;;14.70;49.60;;;;;;5098280;28;20458;-86
2021/10/27 01:42:44;;;;;;;9.70;6.23;;;15.10;49.40;;;;;;5098017;28;20811;-85
2021/10/27 01:45:12;;;;;;;12.37;7.20;;;15.30;49.60;;;;;;5097624;28;20470;-85
2021/10/27 01:47:43;;;;;;;8.37;6.23;;;15.00;47.90;;;;;;5097442;28;20478;-85
2021/10/27 01:50:10;;;;;;;8.33;5.90;;;14.70;46.80;;;;;;5097519;28;20462;-85
2021/10/27 01:52:38;;;;;;;16.50;8.10;;;14.90;50.00;;;;;;5096924;28;20509;-85
2021/10/27 01:55:08;;;;;;;11.43;6.50;;;14.60;46.80;;;;;;5096781;28;20474;-85
2021/10/27 01:57:35;;;;;;;9.17;5.67;;;14.00;45.80;;;;;;5096815;28;20462;-85
2021/10/27 02:00:02;;;;;;;8.60;6.30;;;13.90;51.30;;;;;;5096434;28;20950;-85
2021/10/27 02:02:29;;;;;;;12.17;7.53;;;14.30;49.40;;;;;;5096741;28;20967;-85
2021/10/27 02:04:56;;;;;;;9.30;6.10;;;14.40;49.90;;;;;;5095702;28;20473;-85
2021/10/27 02:07:23;;;;;;;7.87;6.20;;;14.50;48.60;;;;;;5096305;28;20459;-85
2021/10/27 02:09:50;;;;;;;8.87;6.00;;;14.40;49.20;;;;;;5096563;28;20485;-85
2021/10/27 02:12:19;;;;;;;10.40;6.40;;;14.40;50.20;;;;;;5096065;28;20577;-84
2021/10/27 02:14:45;;;;;;;10.30;6.47;;;14.80;49.30;;;;;;5097601;28;20820;-85
2021/10/27 02:17:13;;;;;;;9.23;6.17;;;14.90;48.80;;;;;;5095668;28;20493;-86
2021/10/27 02:19:40;;;;;;;8.80;5.57;;;15.00;48.30;;;;;;5094997;28;20450;-85
2021/10/27 02:22:07;;;;;;;13.80;5.80;;;14.80;48.10;;;;;;5095237;28;20461;-85
2021/10/27 02:24:34;;;;;;;7.50;5.53;;;14.60;47.60;;;;;;5094948;28;20478;-85
2021/10/27 02:27:00;;;;;;;7.90;6.03;;;14.80;48.00;;;;;;5094555;28;20554;-85
2021/10/27 02:29:29;;;;;;;8.10;5.57;;;14.30;45.20;;;;;;5094461;28;20555;-85
2021/10/27 02:31:56;;;;;;;8.43;5.97;;;14.00;48.90;;;;;;5094464;28;20498;-86
2021/10/27 02:34:23;;;;;;;9.43;6.07;;;14.20;49.50;;;;;;5094523;28;20471;-85
2021/10/27 02:36:50;;;;;;;7.97;5.10;;;14.30;48.60;;;;;;5094907;28;20470;-86
2021/10/27 02:39:16;;;;;;;8.90;6.10;;;14.60;49.20;;;;;;5094176;28;20920;-85
2021/10/27 02:41:43;;;;;;;10.77;6.33;;;14.60;46.80;;;;;;5094791;28;20897;-85
2021/10/27 02:44:10;;;;;;;9.90;6.30;;;14.40;49.00;;;;;;5094718;28;20470;-86
2021/10/27 02:46:38;;;;;;;8.73;6.80;;;14.10;48.70;;;;;;5094375;28;20912;-86
2021/10/27 02:49:05;;;;;;;8.17;6.40;;;14.60;50.10;;;;;;5094495;28;20485;-85
2021/10/27 02:51:32;;;;;;;11.97;8.20;;;14.50;48.90;;;;;;5094040;28;20569;-85
2021/10/27 02:53:59;;;;;;;11.33;7.20;;;14.30;47.00;;;;;;5094293;28;20545;-85
2021/10/27 02:56:26;;;;;;;7.90;6.23;;;13.80;49.60;;;;;;5094309;28;21001;-85
2021/10/27 02:58:53;;;;;;;6.50;5.13;;;13.80;50.50;;;;;;5093810;28;20946;-85
2021/10/27 03:01:20;;;;;;;8.33;6.17;;;13.90;47.60;;;;;;5094213;28;20434;-86
2021/10/27 03:03:51;;;;;;;13.60;6.60;;;14.20;49.90;;;;;;5094126;28;20872;-85
2021/10/27 03:06:18;;;;;;;7.03;5.67;;;14.30;46.80;;;;;;5094527;28;20485;-85
2021/10/27 03:08:45;;;;;;;15.97;6.47;;;13.60;46.30;;;;;;5093816;28;20864;-85
2021/10/27 03:11:13;;;;;;;10.90;6.17;;;13.00;46.40;;;;;;5094031;28;20500;-85
2021/10/27 03:13:40;;;;;;;8.97;6.23;;;13.40;52.60;;;;;;5094079;28;20497;-85
2021/10/27 03:16:07;;;;;;;52.23;7.07;;;13.90;51.00;;;;;;5093064;28;20504;-85
2021/10/27 03:18:35;;;;;;;36.77;6.60;;;13.90;43.80;;;;;;5093657;28;20450;-85
2021/10/27 03:21:03;;;;;;;16.40;6.50;;;13.00;46.40;;;;;;5094091;28;20566;-85
2021/10/27 03:23:30;;;;;;;9.00;5.87;;;12.60;47.50;;;;;;5093788;28;20954;-85
2021/10/27 03:25:57;;;;;;;30.17;7.17;;;12.60;50.80;;;;;;5094241;28;20533;-85
2021/10/27 03:28:24;;;;;;;43.07;7.43;;;12.70;48.70;;;;;;5092803;28;20450;-85
2021/10/27 03:30:51;;;;;;;17.20;6.37;;;12.20;46.10;;;;;;5093547;28;20628;-86
2021/10/27 03:33:18;;;;;;;18.27;6.00;;;12.20;51.50;;;;;;5093621;28;20910;-86
2021/10/27 03:35:46;;;;;;;16.63;6.70;;;12.90;52.20;;;;;;5094131;28;20472;-85
2021/10/27 03:38:15;;;;;;;15.87;6.53;;;13.00;46.10;;;;;;5094704;28;20465;-88
2021/10/27 03:40:43;;;;;;;8.10;5.73;;;13.10;47.60;;;;;;5095124;28;20470;-87
2021/10/27 03:43:10;;;;;;;7.27;5.90;;;13.30;48.70;;;;;;5095269;28;20878;-87
2021/10/27 03:45:37;;;;;;;12.60;5.30;;;13.50;50.10;;;;;;5093431;28;20435;-87
2021/10/27 03:48:05;;;;;;;9.33;5.97;;;13.10;50.10;;;;;;5093750;28;20554;-87
2021/10/27 03:50:32;;;;;;;8.80;5.50;;;13.10;46.80;;;;;;5093778;28;20470;-86
2021/10/27 03:52:59;;;;;;;6.00;5.30;;;13.00;49.10;;;;;;5093358;28;20477;-86
2021/10/27 03:55:27;;;;;;;5.43;4.93;;;12.70;48.50;;;;;;5093751;28;20461;-88
2021/10/27 03:57:58;;;;;;;6.43;5.67;;;13.10;49.90;;;;;;5107668;28;20450;-87
2021/10/27 04:00:25;;;;;;;11.33;5.23;;;12.90;49.50;;;;;;5113714;28;20468;-87
2021/10/27 04:02:52;;;;;;;25.07;11.40;;;13.40;51.50;;;;;;5106436;28;20435;-87
2021/10/27 04:05:20;;;;;;;10.20;6.13;;;13.60;47.90;;;;;;5097420;28;20427;-87
2021/10/27 04:07:47;;;;;;;8.10;5.97;;;13.40;48.50;;;;;;5095425;28;20472;-89
2021/10/27 04:10:14;;;;;;;16.23;5.93;;;13.50;45.30;;;;;;5094888;28;20452;-87
2021/10/27 04:12:43;;;;;;;6.63;5.27;;;12.50;47.60;;;;;;5094337;28;20519;-87
2021/10/27 04:15:12;;;;;;;12.90;5.77;;;11.80;46.20;;;;;;5094177;28;20824;-86
2021/10/27 04:17:39;;;;;;;10.50;6.43;;;12.10;51.10;;;;;;5100697;28;20454;-87
2021/10/27 04:20:08;;;;;;;9.80;6.00;;;12.70;52.00;;;;;;5094330;28;20527;-87
2021/10/27 04:22:37;;;;;;;10.60;5.70;;;12.90;50.50;;;;;;5094408;28;20444;-86
2021/10/27 04:25:04;;;;;;;78.43;20.90;;;13.00;51.40;;;;;;5107068;28;20554;-87
2021/10/27 04:27:32;;;;;;;19.70;9.30;;;13.20;51.50;;;;;;5095881;28;20489;-87
2021/10/27 04:30:00;;;;;;;31.67;13.07;;;13.40;50.70;;;;;;5097684;28;20456;-87
2021/10/27 04:32:27;;;;;;;8.63;6.20;;;13.50;48.70;;;;;;5098044;28;20475;-86
2021/10/27 04:34:54;;;;;;;9.77;6.47;;;13.70;51.20;;;;;;5097087;28;20484;-86
2021/10/27 04:37:21;;;;;;;13.53;5.70;;;13.80;50.00;;;;;;5096854;28;20551;-87
2021/10/27 04:39:47;;;;;;;7.47;5.57;;;13.80;51.40;;;;;;5097797;28;20494;-85
2021/10/27 04:42:14;;;;;;;10.10;5.93;;;14.00;50.40;;;;;;5098352;28;20471;-86
2021/10/27 04:44:41;;;;;;;9.70;5.67;;;14.00;49.10;;;;;;5097258;28;20474;-87
2021/10/27 04:47:10;;;;;;;8.80;6.30;;;14.00;50.20;;;;;;5097090;28;20638;-87
2021/10/27 04:49:37;;;;;;;20.07;6.80;;;13.50;46.60;;;;;;5096589;28;20525;-87
2021/10/27 04:52:05;;;;;;;12.43;5.90;;;13.60;50.40;;;;;;5096755;28;20572;-87
2021/10/27 04:54:31;;;;;;;12.70;6.23;;;13.70;48.70;;;;;;5096204;28;20857;-85
2021/10/27 04:56:59;;;;;;;11.00;6.23;;;14.00;50.90;;;;;;5097131;28;20490;-86
2021/10/27 04:59:29;;;;;;;9.27;6.30;;;13.90;49.50;;;;;;5096284;28;20476;-85
2021/10/27 05:01:56;;;;;;;17.17;7.17;;;14.00;47.60;;;;;;5096612;28;20461;-86
2021/10/27 05:04:24;;;;;;;10.73;5.93;;;14.00;48.70;;;;;;5096445;28;20549;-86
2021/10/27 05:06:51;;;;;;;15.20;8.03;;;14.00;49.30;;;;;;5098639;28;20474;-87
2021/10/27 05:09:18;;;;;;;13.97;5.70;;;13.80;48.60;;;;;;5097447;28;20789;-86
2021/10/27 05:11:45;;;;;;;39.90;7.63;;;13.60;49.70;;;;;;5097483;28;20502;-86
2021/10/27 05:14:12;;;;;;;26.13;7.37;;;12.90;43.30;;;;;;5096841;28;20521;-86
2021/10/27 05:16:39;;;;;;;9.63;5.27;;;12.40;44.90;;;;;;5097428;28;20601;-85
2021/10/27 05:19:06;;;;;;;9.93;6.90;;;12.50;52.60;;;;;;5097385;28;20499;-86
2021/10/27 05:21:34;;;;;;;9.37;6.23;;;13.00;51.30;;;;;;5096826;28;20471;-85
2021/10/27 05:24:01;;;;;;;23.43;7.77;;;13.40;48.70;;;;;;5096000;28;20444;-87
2021/10/27 05:26:28;;;;;;;22.93;6.30;;;13.10;45.60;;;;;;5096225;28;20522;-86
2021/10/27 05:28:55;;;;;;;12.33;7.30;;;12.70;46.90;;;;;;5096291;28;20500;-86
2021/10/27 05:31:22;;;;;;;13.60;7.47;;;11.90;44.30;;;;;;5095501;28;20936;-88
2021/10/27 05:33:49;;;;;;;6.77;6.00;;;11.40;46.60;;;;;;5095643;28;20520;-86
2021/10/27 05:36:16;;;;;;;31.47;6.83;;;11.70;49.00;;;;;;5093703;28;20466;-86
2021/10/27 05:38:44;;;;;;;22.37;7.40;;;11.70;47.50;;;;;;5095085;28;20446;-86
2021/10/27 05:41:11;;;;;;;12.07;7.07;;;11.50;51.60;;;;;;5095013;28;20870;-85
2021/10/27 05:43:38;;;;;;;35.87;8.00;;;11.90;51.30;;;;;;5095849;28;20481;-87
2021/10/27 05:46:06;;;;;;;56.67;8.30;;;11.50;48.30;;;;;;5095010;28;20472;-87
2021/10/27 05:48:37;;;;;;;21.27;7.90;;;10.90;50.30;;;;;;5096205;28;20457;-86
2021/10/27 05:51:22;;;;;;;77.20;9.13;;;11.20;52.80;;;;;;5093683;28;20448;-84
2021/10/27 05:56:35;;;;;;;26.27;7.50;;;11.30;51.90;;;;;;5096037;28;20453;-86
2021/10/27 05:59:01;;;;;;;9.60;6.93;;;12.00;51.30;;;;;;5096412;28;20534;-85
2021/10/27 06:01:29;;;;;;;7.53;6.20;;;12.50;52.80;;;;;;5096715;28;20756;-86
2021/10/27 06:03:56;;;;;;;14.57;6.83;;;13.20;53.40;;;;;;5096028;28;20915;-86
2021/10/27 06:06:23;;;;;;;8.23;5.83;;;13.50;52.70;;;;;;5095962;28;20559;-86
2021/10/27 06:08:54;;;;;;;20.00;7.33;;;13.80;51.40;;;;;;5095837;28;20526;-85
2021/10/27 06:11:21;;;;;;;15.53;6.93;;;14.00;48.40;;;;;;5096047;28;20431;-86
2021/10/27 06:13:48;;;;;;;13.00;6.97;;;13.70;49.20;;;;;;5095687;28;20846;-86
2021/10/27 06:16:16;;;;;;;15.03;6.50;;;13.60;48.30;;;;;;5095133;28;20490;-85
2021/10/27 06:18:44;;;;;;;10.50;6.80;;;13.80;50.50;;;;;;5095149;28;20450;-85
2021/10/27 06:21:12;;;;;;;8.90;5.90;;;14.00;48.70;;;;;;5095100;28;20536;-86
2021/10/27 06:23:40;;;;;;;11.33;6.53;;;14.30;51.00;;;;;;5094973;28;20516;-86
2021/10/27 06:26:09;;;;;;;16.63;7.87;;;14.50;49.90;;;;;;5095003;28;20994;-85
2021/10/27 06:28:42;;;;;;;20.00;6.20;;;14.00;46.50;;;;;;5094972;28;20442;-85
2021/10/27 06:31:12;;;;;;;24.43;5.87;;;13.80;47.30;;;;;;5094206;28;20473;-85
2021/10/27 06:33:50;;;;;;;10.50;5.07;;;13.60;49.90;;;;;;5093987;28;20535;-84
2021/10/27 06:36:22;;;;;;;36.57;6.07;;;13.50;48.30;;;;;;5094633;28;20484;-84
2021/10/27 06:38:58;;;;;;;17.60;7.17;;;13.00;46.90;;;;;;5097031;28;20473;-85
2021/10/27 06:46:56;;;;;;;16.90;6.50;;;13.60;47.40;;;;;;5110859;28;20518;-84
2021/10/27 06:49:24;;;;;;;73.63;7.77;;;12.70;48.80;;;;;;5117643;28;20479;-83
2021/10/27 06:51:51;;;;;;;22.40;7.00;;;12.50;47.60;;;;;;5117108;28;20429;-81
2021/10/27 06:54:18;;;;;;;40.67;6.47;;;12.10;48.00;;;;;;5117874;28;20470;-85
2021/10/27 06:56:46;;;;;;;17.53;7.13;;;11.70;47.60;;;;;;5116661;28;20508;-85
2021/10/27 06:59:19;;;;;;;31.20;8.00;;;11.60;50.00;;;;;;5117405;28;20486;-85
2021/10/27 07:02:14;;;;;;;22.53;7.37;;;11.70;48.60;;;;;;5116809;28;20438;-84
2021/10/27 07:05:02;;;;;;;40.73;7.17;;;11.50;50.90;;;;;;5114489;28;20442;-87
2021/10/27 07:15:40;;;;;;;15.17;6.13;;;13.10;51.10;;;;;;5100911;28;20405;-85
2021/10/27 07:18:07;;;;;;;8.80;5.80;;;12.90;48.50;;;;;;5101795;28;20480;-86
2021/10/27 07:20:34;;;;;;;24.13;6.97;;;12.50;50.60;;;;;;5103419;28;20443;-86
2021/10/27 07:23:01;;;;;;;9.00;5.87;;;12.70;49.10;;;;;;5102242;28;20455;-86
2021/10/27 07:25:33;;;;;;;41.37;6.93;;;12.40;50.30;;;;;;5101659;28;20448;-86
2021/10/27 07:28:01;;;;;;;41.80;7.33;;;12.40;50.10;;;;;;5101824;28;20470;-86
2021/10/27 07:30:28;;;;;;;38.50;7.00;;;12.20;50.40;;;;;;5101846;28;20447;-86
2021/10/27 07:32:57;;;;;;;57.70;8.20;;;12.50;52.40;;;;;;5101702;28;21036;-85
2021/10/27 07:35:28;;;;;;;34.50;8.00;;;12.00;48.30;;;;;;5101895;28;20449;-86
2021/10/27 07:40:46;;;;;;;10.47;5.00;;;12.00;51.30;;;;;;5102076;28;20423;-85
2021/10/27 07:43:17;;;;;;;70.93;9.00;;;12.80;53.10;;;;;;5102419;28;20431;-85
2021/10/27 07:45:45;;;;;;;38.33;8.07;;;13.10;48.10;;;;;;5100371;28;20445;-85
2021/10/27 07:48:12;;;;;;;17.10;6.73;;;12.90;49.40;;;;;;5100128;28;20473;-86
2021/10/27 07:50:40;;;;;;;61.23;8.30;;;13.10;50.60;;;;;;5099876;28;20533;-86
2021/10/27 07:53:09;;;;;;;50.03;7.23;;;12.60;48.60;;;;;;5100387;28;20521;-85
2021/10/27 07:55:38;;;;;;;10.20;6.43;;;12.20;50.60;;;;;;5100518;28;20449;-86
2021/10/27 07:58:05;;;;;;;33.43;7.83;;;11.80;51.70;;;;;;5098941;28;20801;-86
2021/10/27 08:00:34;;;;;;;25.93;8.20;;;12.40;51.70;;;;;;5099837;28;20486;-85
2021/10/27 08:03:02;;;;;;;12.40;6.57;;;11.80;49.30;;;;;;5101775;28;20529;-85
2021/10/27 08:05:31;;;;;;;21.97;7.90;;;11.40;51.90;;;;;;5099646;28;20450;-86
2021/10/27 08:07:58;;;;;;;10.53;6.50;;;11.90;52.60;;;;;;5097874;28;20451;-86
2021/10/27 08:10:27;;;;;;;11.47;7.63;;;12.80;52.10;;;;;;5098592;28;20439;-86
2021/10/27 08:12:54;;;;;;;12.60;7.70;;;12.80;48.40;;;;;;5098277;28;20834;-85
2021/10/27 08:15:21;;;;;;;9.70;7.30;;;12.90;48.80;;;;;;5098049;28;20470;-86
2021/10/27 08:17:50;;;;;;;13.40;7.10;;;13.50;48.80;;;;;;5098660;28;20817;-87
2021/10/27 08:20:20;;;;;;;11.63;6.67;;;14.10;50.50;;;;;;5098455;28;20458;-86
2021/10/27 08:22:53;;;;;;;11.80;7.33;;;14.40;49.00;;;;;;5098755;28;20434;-86
2021/10/27 08:25:24;;;;;;;7.13;5.30;;;14.20;45.80;;;;;;5098344;28;20443;-87
2021/10/27 08:27:51;;;;;;;21.53;6.03;;;13.60;47.30;;;;;;5098452;28;20533;-85
2021/10/27 08:30:21;;;;;;;82.23;7.67;;;13.80;47.50;;;;;;5109501;28;20446;-85
2021/10/27 08:32:52;;;;;;;72.20;8.50;;;12.70;47.20;;;;;;5111242;28;20445;-85
2021/10/27 08:35:20;;;;;;;22.60;8.37;;;11.80;49.50;;;;;;5104647;28;20504;-86
2021/10/27 08:37:49;;;;;;;42.33;7.73;;;11.60;49.60;;;;;;5102252;28;20471;-85
2021/10/27 08:40:19;;;;;;;47.87;8.13;;;11.70;51.10;;;;;;5100461;28;20525;-87
2021/10/27 08:42:47;;;;;;;32.87;8.20;;;11.60;51.00;;;;;;5098755;28;20550;-86
2021/10/27 08:45:14;;;;;;;30.03;8.10;;;11.90;51.30;;;;;;5096992;28;20437;-86
2021/10/27 08:47:42;;;;;;;16.90;8.50;;;12.00;50.40;;;;;;5096722;28;20488;-85
2021/10/27 08:50:13;;;;;;;21.63;8.03;;;12.60;49.80;;;;;;5096466;28;20799;-86
2021/10/27 08:52:41;;;;;;;13.40;6.33;;;12.80;48.40;;;;;;5096921;28;20431;-86
2021/10/27 08:55:11;;;;;;;10.40;7.50;;;13.30;49.10;;;;;;5095279;28;20547;-86
2021/10/27 08:57:38;;;;;;;11.50;8.23;;;13.50;46.90;;;;;;5095362;28;20473;-86
2021/10/27 09:00:12;;;;;;;11.30;8.30;;;13.80;47.00;;;;;;5095082;28;20559;-86
2021/10/27 09:08:40;;;;;;;20.47;9.77;;;13.30;46.30;;;;;;5095848;28;20454;-85
2021/10/27 09:15:01;;;;;;;14.70;9.97;;;13.10;48.30;;;;;;5102130;28;20454;-85
2021/10/27 09:37:18;;;;;;;14.00;10.40;;;12.50;51.80;;;;;;5096405;28;20545;-86
2021/10/27 09:40:10;;;;;;;27.30;11.07;;;12.50;51.10;;;;;;5097209;28;20943;-87
2021/10/27 09:42:50;;;;;;;26.77;12.00;;;12.10;51.50;;;;;;5096676;28;20923;-86
2021/10/27 10:05:09;;;;;;;19.50;11.30;;;12.60;51.90;;;;;;5097088;28;20405;-86
2021/10/27 10:07:37;;;;;;;17.30;11.33;;;12.10;54.30;;;;;;5096902;28;20562;-87
2021/10/27 10:10:05;;;;;;;9.20;7.03;;;11.80;56.80;;;;;;5096604;28;20518;-86
2021/10/27 10:12:37;;;;;;;16.50;11.13;;;12.70;58.70;;;;;;5097508;28;20443;-85
2021/10/27 10:15:05;;;;;;;22.43;11.73;;;13.30;52.70;;;;;;5097328;28;20470;-85
2021/10/27 10:17:34;;;;;;;23.17;17.57;;;14.10;52.50;;;;;;5095846;28;20549;-86
2021/10/27 10:20:01;;;;;;;17.23;10.67;;;13.80;53.00;;;;;;5096251;28;20496;-85
2021/10/27 10:22:34;;;;;;;15.77;11.23;;;14.00;52.50;;;;;;5096403;28;20936;-85
2021/10/27 10:25:27;;;;;;;11.00;7.70;;;15.10;50.30;;;;;;5096089;28;20456;-86
2021/10/27 10:27:58;;;;;;;15.50;10.63;;;15.60;50.70;;;;;;5096521;28;20813;-86
2021/10/27 10:30:30;;;;;;;14.20;10.10;;;16.20;47.20;;;;;;5096721;28;20437;-85
2021/10/27 10:33:02;;;;;;;14.37;10.70;;;15.70;47.70;;;;;;5095318;28;20917;-86
2021/10/27 10:35:42;;;;;;;15.57;10.27;;;15.90;48.00;;;;;;5095472;28;20506;-85
2021/10/27 10:38:34;;;;;;;12.63;9.90;;;15.80;47.60;;;;;;5096993;28;20430;-86
2021/10/27 10:44:06;;;;;;;16.00;9.50;;;15.80;48.80;;;;;;5094171;28;20441;-86
2021/10/27 11:01:05;;;;;;;15.87;10.40;;;16.50;45.00;;;;;;5080385;28;20468;-87
2021/10/27 11:23:52;;;;;;;14.90;10.53;;;17.60;45.90;;;;;;5095114;28;20452;-86
2021/10/27 11:37:38;;;;;;;21.70;10.10;;;17.60;46.10;;;;;;5098198;28;20869;-85
2021/10/27 11:40:12;;;;;;;16.63;11.80;;;17.60;46.50;;;;;;5099280;28;20435;-86
2021/10/27 11:42:49;;;;;;;20.00;9.70;;;17.50;46.20;;;;;;5099041;28;20443;-86
2021/10/27 11:45:24;;;;;;;18.13;9.60;;;17.50;45.60;;;;;;5099494;28;20462;-86
2021/10/27 11:47:54;;;;;;;13.70;9.47;;;17.10;46.20;;;;;;5098579;28;20469;-86
2021/10/27 11:50:30;;;;;;;14.17;10.20;;;17.10;46.10;;;;;;5097900;28;20521;-86
2021/10/27 11:52:57;;;;;;;16.67;9.63;;;17.10;45.90;;;;;;5098987;28;20449;-86
2021/10/27 11:55:29;;;;;;;16.47;11.33;;;17.20;45.20;;;;;;5099498;28;20478;-86
2021/10/27 11:57:56;;;;;;;21.67;10.70;;;17.10;46.50;;;;;;5097916;28;20491;-85
2021/10/27 12:00:30;;;;;;;15.50;9.97;;;17.30;45.70;;;;;;5098146;28;20517;-86
2021/10/27 12:03:01;;;;;;;17.77;10.13;;;17.60;46.00;;;;;;5099705;28;20458;-86
2021/10/27 12:05:35;;;;;;;17.67;10.83;;;17.90;44.70;;;;;;5098715;28;20893;-86
2021/10/27 12:08:22;;;;;;;16.20;11.57;;;18.00;44.20;;;;;;5096593;28;21016;-87
2021/10/27 12:16:42;;;;;;;20.60;10.40;;;17.90;44.50;;;;;;5102552;28;20478;-86
2021/10/27 12:19:17;;;;;;;18.60;10.63;;;17.60;45.70;;;;;;5108398;28;20430;-86
2021/10/27 12:21:52;;;;;;;17.83;9.73;;;17.10;46.30;;;;;;5104290;28;20946;-87
2021/10/27 12:24:22;;;;;;;14.60;9.77;;;17.00;47.10;;;;;;5097613;28;20422;-86
2021/10/27 12:26:56;;;;;;;13.53;9.50;;;16.90;47.20;;;;;;5098280;28;20458;-86
2021/10/27 12:29:27;;;;;;;13.77;8.90;;;16.70;47.70;;;;;;5097482;28;20553;-86
2021/10/27 12:32:08;;;;;;;16.93;10.30;;;16.80;47.20;;;;;;5107835;28;20447;-85
2021/10/27 12:34:44;;;;;;;19.60;10.80;;;16.90;46.40;;;;;;5097718;28;20967;-85
2021/10/27 12:37:34;;;;;;;17.20;10.27;;;17.00;46.70;;;;;;5095878;28;20461;-85
2021/10/27 12:40:22;;;;;;;13.27;9.40;;;17.10;47.00;;;;;;5097327;28;20443;-85
2021/10/27 12:42:59;;;;;;;17.90;9.63;;;16.80;47.20;;;;;;5096043;28;20503;-85
2021/10/27 12:45:34;;;;;;;14.13;8.30;;;16.70;48.00;;;;;;5095802;28;20419;-85
2021/10/27 12:48:04;;;;;;;14.93;9.30;;;17.10;46.60;;;;;;5097310;28;20846;-86
2021/10/27 12:50:31;;;;;;;13.70;9.70;;;16.80;47.30;;;;;;5100201;28;20466;-85
2021/10/27 12:53:00;;;;;;;18.87;9.73;;;17.10;46.30;;;;;;5099703;28;20547;-85
2021/10/27 12:55:30;;;;;;;12.47;9.00;;;16.50;48.50;;;;;;5100524;28;20960;-85
2021/10/27 12:58:04;;;;;;;19.97;9.03;;;16.60;48.60;;;;;;5099420;28;20803;-85
2021/10/27 13:00:48;;;;;;;17.30;8.53;;;16.60;48.30;;;;;;5100682;28;20891;-86
2021/10/27 13:06:21;;;;;;;15.27;8.80;;;17.30;46.90;;;;;;5075445;28;20447;-84
2021/10/27 13:14:37;;;;;;;23.47;10.00;;;16.90;47.90;;;;;;5101187;28;20944;-87
2021/10/27 13:17:31;;;;;;;14.50;9.50;;;16.80;48.20;;;;;;5080720;28;20467;-84
2021/10/27 13:22:48;;;;;;;11.20;8.07;;;17.00;46.90;;;;;;5099224;28;20432;-85
2021/10/27 13:30:50;;;;;;;14.40;8.60;;;16.90;48.00;;;;;;5097925;28;20634;-85
2021/10/27 13:33:19;;;;;;;15.50;8.50;;;17.00;47.90;;;;;;5098426;28;20442;-85
2021/10/27 13:35:46;;;;;;;14.57;9.07;;;17.00;47.70;;;;;;5098415;28;20470;-85
2021/10/27 13:38:14;;;;;;;15.17;8.87;;;16.80;47.70;;;;;;5098209;28;20656;-86
2021/10/27 13:40:44;;;;;;;15.03;10.10;;;16.80;47.60;;;;;;5098830;28;20445;-85
2021/10/27 13:43:15;;;;;;;12.20;6.10;;;16.60;48.60;;;;;;5101951;28;20457;-86
2021/10/27 13:45:49;;;;;;;18.70;9.70;;;17.10;47.70;;;;;;5101305;28;20446;-88
2021/10/27 13:48:21;;;;;;;15.50;8.90;;;17.10;47.30;;;;;;5101228;28;20450;-86
2021/10/27 14:07:22;;;;;;;18.23;8.77;;;17.00;47.50;;;;;;5101500;28;20433;-87
2021/10/27 14:09:52;;;;;;;16.77;9.10;;;17.50;45.70;;;;;;5106293;28;20462;-87
2021/10/27 14:12:34;;;;;;;12.33;9.20;;;17.20;46.40;;;;;;5105412;28;20446;-86
2021/10/27 14:15:07;;;;;;;15.27;9.00;;;17.00;47.20;;;;;;5100346;28;20587;-86
2021/10/27 14:20:40;;;;;;;12.90;7.90;;;17.30;46.40;;;;;;5092416;28;20796;-84
2021/10/27 14:51:06;;;;;;;12.13;8.73;;;16.50;47.80;;;;;;5112425;28;20433;-85
2021/10/27 15:21:16;;;;;;;20.53;10.33;;;17.40;46.40;;;;;;5088505;28;20404;-86
2021/10/27 15:24:02;;;;;;;15.43;8.43;;;17.70;45.50;;;;;;5086668;28;20444;-86
2021/10/27 15:29:25;;;;;;;13.90;10.13;;;17.60;45.60;;;;;;5088673;28;20418;-85
2021/10/27 15:32:17;;;;;;;15.03;8.20;;;17.60;45.80;;;;;;5114629;28;20459;-85
2021/10/27 15:43:13;;;;;;;15.60;8.17;;;17.00;46.70;;;;;;5101241;28;20431;-87
2021/10/27 15:51:08;;;;;;;22.87;8.90;;;17.20;46.50;;;;;;5113827;28;20432;-86
2021/10/27 15:53:35;;;;;;;14.10;8.33;;;17.00;46.60;;;;;;5108846;28;20442;-86
2021/10/27 15:56:02;;;;;;;14.10;8.80;;;16.90;46.60;;;;;;5095134;28;20995;-86
2021/10/27 15:58:29;;;;;;;11.13;8.07;;;16.90;47.20;;;;;;5094922;28;20438;-86
2021/10/27 16:00:56;;;;;;;28.60;8.67;;;17.10;46.60;;;;;;5097113;28;20513;-86
2021/10/27 16:03:23;;;;;;;16.53;7.70;;;17.20;46.60;;;;;;5095645;28;20474;-87
2021/10/27 16:05:52;;;;;;;19.30;10.17;;;17.20;46.40;;;;;;5094958;28;20469;-86
2021/10/27 16:08:22;;;;;;;23.27;10.80;;;17.40;46.10;;;;;;5095005;28;20475;-86
2021/10/27 16:10:50;;;;;;;21.20;12.10;;;17.70;45.30;;;;;;5095066;28;20836;-86
2021/10/27 16:13:17;;;;;;;12.33;5.80;;;17.80;45.00;;;;;;5093960;28;20670;-86
2021/10/27 16:15:55;;;;;;;5.20;4.00;;;17.90;45.50;;;;;;5093604;28;20553;-86
2021/10/27 16:18:23;;;;;;;16.73;10.27;;;18.10;45.80;;;;;;5093934;28;20434;-86
2021/10/27 16:20:50;;;;;;;13.97;6.53;;;18.50;45.00;;;;;;5094240;28;20458;-87
2021/10/27 16:23:19;;;;;;;14.43;9.10;;;18.70;44.90;;;;;;5097522;28;20872;-86
2021/10/27 16:25:47;;;;;;;20.87;11.40;;;18.80;44.40;;;;;;5100856;28;20442;-86
2021/10/27 16:28:14;;;;;;;20.70;9.30;;;18.80;43.80;;;;;;5100916;28;20503;-86
2021/10/27 16:30:42;;;;;;;8.27;5.27;;;18.60;44.20;;;;;;5101760;28;20481;-86
2021/10/27 16:33:09;;;;;;;8.03;5.10;;;18.70;45.10;;;;;;5101793;28;20998;-86
2021/10/27 16:35:36;;;;;;;8.20;4.43;;;18.70;45.10;;;;;;5101984;28;20474;-86
2021/10/27 16:38:04;;;;;;;7.90;5.10;;;18.80;44.90;;;;;;5104609;28;20450;-86
2021/10/27 16:40:31;;;;;;;11.07;8.00;;;18.90;44.50;;;;;;5103682;28;20875;-87
2021/10/27 16:43:00;;;;;;;13.50;5.90;;;19.00;44.50;;;;;;5101893;28;20453;-87